createdAt,value
2023-01-11T00:02:04.885Z,98967.63
2023-01-11T00:04:31.742Z,98967.61
2023-01-11T00:06:58.569Z,98961.87
2023-01-11T00:09:25.394Z,98965.65
2023-01-11T00:11:52.243Z,98966.23
2023-01-11T00:14:18.974Z,98967.27
2023-01-11T00:16:45.767Z,98965.05
2023-01-11T00:19:12.767Z,98959.19
2023-01-11T00:21:39.588Z,98957.29
2023-01-11T00:24:06.410Z,98957.53
2023-01-11T00:26:33.429Z,98958.54
2023-01-11T00:29:00.161Z,98962.70
2023-01-11T00:31:26.923Z,98962.43
2023-01-11T00:33:53.734Z,98969.27
2023-01-11T00:36:21.449Z,98971.23
2023-01-11T00:38:51.861Z,98967.17
2023-01-11T00:41:36.452Z,98964.66
2023-01-11T00:44:20.399Z,98970.73
2023-01-11T00:47:02.400Z,98972.98
2023-01-11T00:49:29.757Z,98975.15
2023-01-11T00:51:56.649Z,98973.40
2023-01-11T00:54:23.516Z,98973.71
2023-01-11T00:56:50.500Z,98978.33
2023-01-11T00:59:17.342Z,98985.20
2023-01-11T01:01:44.131Z,98987.89
2023-01-11T01:04:11.016Z,98991.06
2023-01-11T01:06:53.483Z,98987.64
2023-01-11T01:09:20.609Z,98985.23
2023-01-11T01:11:47.340Z,98986.71
2023-01-11T01:14:31.318Z,98981.35
2023-01-11T01:17:02.370Z,98985.34
2023-01-11T01:19:31.083Z,98988.69
2023-01-11T01:21:59.333Z,98988.29
2023-01-11T01:24:31.028Z,98981.84
2023-01-11T01:26:58.475Z,98983.24
2023-01-11T01:29:25.616Z,98980.23
2023-01-11T01:31:52.387Z,98983.80
2023-01-11T01:34:19.334Z,98985.88
2023-01-11T01:36:46.106Z,98987.15
2023-01-11T01:39:14.225Z,98984.73
2023-01-11T01:41:41.182Z,98983.58
2023-01-11T01:44:38.614Z,98979.89
2023-01-11T01:47:05.644Z,98970.70
2023-01-11T01:49:32.514Z,98972.92
2023-01-11T01:52:00.245Z,98976.45
2023-01-11T01:54:35.667Z,98978.43
2023-01-11T01:57:09.683Z,98974.89
2023-01-11T01:59:36.830Z,98973.35
2023-01-11T02:02:03.731Z,98974.36
2023-01-11T02:04:34.439Z,98973.89
2023-01-11T02:07:06.792Z,98978.31
2023-01-11T02:09:39.564Z,98975.54
2023-01-11T02:12:07.975Z,98972.27
2023-01-11T02:14:37.020Z,98968.08
2023-01-11T02:17:04.017Z,98968.33
2023-01-11T02:19:45.980Z,98964.85
2023-01-11T02:22:32.014Z,98958.39
2023-01-11T02:25:14.358Z,98952.13
2023-01-11T02:27:56.453Z,98949.90
2023-01-11T02:30:38.607Z,98950.45
2023-01-11T02:33:06.340Z,98953.89
2023-01-11T02:35:43.897Z,98954.77
2023-01-11T02:38:17.417Z,98950.02
2023-01-11T02:41:10.598Z,98949.21
2023-01-11T02:44:09.625Z,98954.95
2023-01-11T02:46:59.107Z,98959.89
2023-01-11T02:49:30.338Z,98964.16
2023-01-11T02:52:07.803Z,98963.04
2023-01-11T02:54:37.895Z,98959.41
2023-01-11T02:57:05.878Z,98958.73
2023-01-11T02:59:35.788Z,98952.27
2023-01-11T03:02:03.032Z,98957.92
2023-01-11T03:04:32.223Z,98959.76
2023-01-11T03:07:29.827Z,98959.42
2023-01-11T03:10:15.894Z,98960.77
2023-01-11T03:13:01.323Z,98964.10
2023-01-11T03:15:46.612Z,98963.77
2023-01-11T03:18:37.319Z,98970.23
2023-01-11T03:21:24.654Z,98969.49
2023-01-11T03:23:57.187Z,98969.84
2023-01-11T03:26:31.228Z,98968.91
2023-01-11T03:29:13.081Z,98965.10
2023-01-11T03:31:50.163Z,98964.84
2023-01-11T03:34:16.869Z,98960.33
2023-01-11T03:36:54.772Z,98964.77
2023-01-11T03:39:30.085Z,98960.44
2023-01-11T03:42:01.659Z,98958.20
2023-01-11T03:44:35.728Z,98957.06
2023-01-11T03:47:07.222Z,98960.67
2023-01-11T03:49:38.553Z,98956.44
2023-01-11T03:52:09.538Z,98952.77
2023-01-11T03:54:37.307Z,98952.73
2023-01-11T03:57:18.687Z,98949.39
2023-01-11T03:59:45.755Z,98948.70
2023-01-11T04:02:16.980Z,98955.11
2023-01-11T04:04:43.925Z,98952.66
2023-01-11T04:07:10.861Z,98954.20
2023-01-11T04:09:38.315Z,98950.92
2023-01-11T04:12:05.446Z,98950.27
2023-01-11T04:14:32.471Z,98948.96
2023-01-11T04:16:59.229Z,98948.34
2023-01-11T04:19:26.174Z,98944.29
2023-01-11T04:21:53.024Z,98946.15
2023-01-11T04:24:20.137Z,98943.25
2023-01-11T04:26:46.866Z,98942.48
2023-01-11T04:29:13.695Z,98940.23
2023-01-11T04:31:40.432Z,98943.48
2023-01-11T04:34:07.427Z,98943.96
2023-01-11T04:36:34.176Z,98941.41
2023-01-11T04:39:00.970Z,98944.89
2023-01-11T04:41:43.107Z,98943.21
2023-01-11T04:44:10.774Z,98941.53
2023-01-11T04:46:37.500Z,98941.56
2023-01-11T04:49:04.322Z,98939.41
2023-01-11T04:51:31.180Z,98935.98
2023-01-11T04:53:57.998Z,98935.46
2023-01-11T04:56:24.789Z,98931.48
2023-01-11T04:58:51.494Z,98931.39
2023-01-11T05:01:19.686Z,98927.67
2023-01-11T05:03:46.874Z,98924.95
2023-01-11T05:06:14.839Z,98917.82
2023-01-11T05:08:45.904Z,98911.54
2023-01-11T05:11:12.782Z,98910.38
2023-01-11T05:13:42.761Z,98912.01
2023-01-11T05:16:15.368Z,98918.77
2023-01-11T05:18:45.754Z,98923.13
2023-01-11T05:21:15.128Z,98921.91
2023-01-11T05:23:42.971Z,98921.89
2023-01-11T05:26:13.318Z,98919.38
2023-01-11T05:28:40.067Z,98913.23
2023-01-11T05:31:06.897Z,98911.04
2023-01-11T05:33:33.775Z,98914.64
2023-01-11T05:36:02.725Z,98920.78
2023-01-11T05:38:30.139Z,98917.87
2023-01-11T05:40:58.794Z,98915.98
2023-01-11T05:43:26.524Z,98915.02
2023-01-11T05:45:53.736Z,98909.80
2023-01-11T05:48:21.256Z,98905.08
2023-01-11T05:50:52.782Z,98906.35
2023-01-11T05:53:20.781Z,98899.46
2023-01-11T05:55:56.935Z,98901.02
2023-01-11T05:58:26.454Z,98901.80
2023-01-11T06:00:55.681Z,98900.55
2023-01-11T06:03:24.232Z,98901.47
2023-01-11T06:05:52.123Z,98904.96
2023-01-11T06:08:19.849Z,98901.11
2023-01-11T06:10:55.511Z,98900.24
2023-01-11T06:13:27.409Z,98900.38
2023-01-11T06:16:11.910Z,98899.25
2023-01-11T06:18:41.224Z,98898.52
2023-01-11T06:21:09.390Z,98890.40
2023-01-11T06:23:38.321Z,98891.11
2023-01-11T06:26:07.364Z,98896.84
2023-01-11T06:28:34.121Z,98899.51
2023-01-11T06:31:01.190Z,98900.47
2023-01-11T06:33:29.451Z,98899.06
2023-01-11T06:35:57.287Z,98904.89
2023-01-11T06:38:25.861Z,98901.97
2023-01-11T06:40:53.903Z,98894.89
2023-01-11T06:43:21.645Z,98894.56
2023-01-11T06:45:48.915Z,98898.23
2023-01-11T06:48:18.259Z,98897.92
2023-01-11T06:50:50.031Z,98900.22
2023-01-11T06:53:16.945Z,98904.36
2023-01-11T06:55:43.991Z,98901.02
2023-01-11T06:58:11.530Z,98903.76
2023-01-11T07:00:38.660Z,98903.31
2023-01-11T07:03:07.049Z,98903.96
2023-01-11T07:05:35.389Z,98904.13
2023-01-11T07:08:03.240Z,98901.47
2023-01-11T07:10:30.333Z,98897.64
2023-01-11T07:12:57.494Z,98900.64
2023-01-11T07:15:24.926Z,98903.20
2023-01-11T07:17:56.489Z,98903.88
2023-01-11T07:20:24.478Z,98898.20
2023-01-11T07:22:51.763Z,98895.52
2023-01-11T07:25:19.457Z,98897.67
2023-01-11T07:27:46.187Z,98892.53
2023-01-11T07:30:13.388Z,98894.64
2023-01-11T07:32:40.173Z,98891.84
2023-01-11T07:35:07.552Z,98885.52
2023-01-11T07:37:38.133Z,98878.55
2023-01-11T07:40:05.524Z,98880.65
2023-01-11T07:42:47.783Z,98881.29
2023-01-11T07:45:14.670Z,98876.26
2023-01-11T07:47:41.409Z,98874.39
2023-01-11T07:50:08.634Z,98871.55
2023-01-11T07:52:35.424Z,98865.98
2023-01-11T07:55:02.873Z,98862.06
2023-01-11T07:57:30.480Z,98861.73
2023-01-11T07:59:57.333Z,98859.98
2023-01-11T08:02:24.400Z,98862.27
2023-01-11T08:04:51.268Z,98860.70
2023-01-11T08:07:18.012Z,98862.05
2023-01-11T08:09:44.811Z,98861.41
2023-01-11T08:12:26.922Z,98860.61
2023-01-11T08:14:53.651Z,98861.08
2023-01-11T08:17:20.602Z,98863.80
2023-01-11T08:19:47.329Z,98858.55
2023-01-11T08:22:14.109Z,98863.07
2023-01-11T08:24:41.037Z,98860.98
2023-01-11T08:27:07.907Z,98861.73
2023-01-11T08:29:34.747Z,98862.27
2023-01-11T08:32:01.578Z,98861.21
2023-01-11T08:34:29.227Z,98861.16
2023-01-11T08:36:57.633Z,98858.54
2023-01-11T08:39:25.078Z,98856.70
2023-01-11T08:41:51.816Z,98853.06
2023-01-11T08:44:29.061Z,98856.14
2023-01-11T08:46:59.941Z,98852.52
2023-01-11T08:49:26.664Z,98852.17
2023-01-11T08:51:53.468Z,98851.25
2023-01-11T08:54:20.312Z,98853.02
2023-01-11T08:56:47.155Z,98855.70
2023-01-11T08:59:14.165Z,98855.30
2023-01-11T09:01:41.011Z,98852.94
2023-01-11T09:04:19.335Z,98852.80
2023-01-11T09:06:51.367Z,98854.05
2023-01-11T09:09:18.151Z,98854.63
2023-01-11T09:12:00.037Z,98855.70
2023-01-11T09:14:28.410Z,98858.19
2023-01-11T09:16:56.383Z,98855.60
2023-01-11T09:19:23.280Z,98855.85
2023-01-11T09:21:51.227Z,98852.34
2023-01-11T09:24:18.044Z,98852.95
2023-01-11T09:26:44.967Z,98852.45
2023-01-11T09:29:12.249Z,98851.59
2023-01-11T09:31:39.358Z,98848.47
2023-01-11T09:34:07.178Z,98845.73
2023-01-11T09:36:36.145Z,98841.52
2023-01-11T09:39:07.703Z,98838.43
2023-01-11T09:41:54.317Z,98833.39
2023-01-11T09:44:26.057Z,98837.45
2023-01-11T09:47:03.575Z,98839.65
2023-01-11T09:49:40.846Z,98839.22
2023-01-11T09:52:15.232Z,98841.34
2023-01-11T09:54:43.280Z,98838.17
2023-01-11T09:57:26.720Z,98831.78
2023-01-11T10:00:06.778Z,98825.38
2023-01-11T10:02:51.539Z,98818.21
2023-01-11T10:05:35.800Z,98818.98
2023-01-11T10:18:27.478Z,98803.59
2023-01-11T10:18:33.760Z,98819.02
2023-01-11T10:20:01.462Z,98799.39
2023-01-11T10:22:41.362Z,98795.05
2023-01-11T10:25:30.585Z,98788.38
2023-01-11T10:28:04.701Z,98776.02
2023-01-11T10:30:57.576Z,98769.80
2023-01-11T10:33:59.296Z,98765.33
2023-01-11T10:36:51.885Z,98769.96
2023-01-11T10:39:57.254Z,98764.19
2023-01-11T10:42:28.892Z,98759.39
2023-01-11T10:45:18.353Z,98753.50
2023-01-11T10:47:57.763Z,98749.73
2023-01-11T10:50:33.744Z,98741.15
2023-01-11T10:53:07.635Z,98736.57
2023-01-11T10:55:49.843Z,98731.23
2023-01-11T10:58:46.835Z,98726.44
2023-01-11T11:01:29.015Z,98722.31
2023-01-11T11:04:02.611Z,98723.02
2023-01-11T11:06:29.852Z,98724.11
2023-01-11T11:09:18.060Z,98721.92
2023-01-11T11:11:54.335Z,98722.23
2023-01-11T11:14:37.874Z,98719.59
2023-01-11T11:17:18.307Z,98717.54
2023-01-11T11:19:45.109Z,98715.15
2023-01-11T11:22:13.107Z,98710.16
2023-01-11T11:24:46.628Z,98707.27
2023-01-11T11:27:19.765Z,98699.02
2023-01-11T11:29:52.671Z,98692.34
2023-01-11T11:32:37.894Z,98694.06
2023-01-11T11:35:07.762Z,98691.40
2023-01-11T11:37:36.566Z,98694.14
2023-01-11T11:40:04.257Z,98685.95
2023-01-11T11:42:31.052Z,98682.81
2023-01-11T11:45:05.334Z,98690.39
2023-01-11T11:47:32.065Z,98687.11
2023-01-11T11:50:42.710Z,98687.70
2023-01-11T11:53:22.484Z,98685.25
2023-01-11T11:55:51.309Z,98690.48
2023-01-11T11:58:21.296Z,98689.03
2023-01-11T12:00:50.564Z,98683.09
2023-01-11T12:03:23.679Z,98689.67
2023-01-11T12:05:50.489Z,98689.91
2023-01-11T12:08:17.946Z,98687.02
2023-01-11T12:10:57.711Z,98685.76
2023-01-11T12:13:27.996Z,98680.13
2023-01-11T12:15:58.503Z,98673.45
2023-01-11T12:18:30.621Z,98669.00
2023-01-11T12:21:08.342Z,98663.61
2023-01-11T12:23:35.109Z,98667.40
2023-01-11T12:26:20.787Z,98668.31
2023-01-11T12:29:06.287Z,98664.70
2023-01-11T12:31:36.437Z,98655.86
2023-01-11T12:34:20.837Z,98656.26
2023-01-11T12:37:04.113Z,98651.30
2023-01-11T12:39:43.734Z,98641.40
2023-01-11T12:42:40.968Z,98636.23
2023-01-11T12:45:08.851Z,98625.47
2023-01-11T12:48:06.081Z,98624.41
2023-01-11T12:50:45.864Z,98621.35
2023-01-11T12:53:26.408Z,98616.67
2023-01-11T12:56:00.838Z,98610.10
2023-01-11T12:58:40.185Z,98606.35
2023-01-11T13:01:24.112Z,98605.20
2023-01-11T13:04:06.130Z,98602.77
2023-01-11T13:07:03.767Z,98601.04
2023-01-11T13:10:01.323Z,98600.48
2023-01-11T13:12:36.808Z,98598.11
2023-01-11T13:15:03.781Z,98596.88
2023-01-11T13:17:33.817Z,98595.83
2023-01-11T13:20:19.271Z,98591.00
2023-01-11T13:22:51.735Z,98586.12
2023-01-11T13:25:24.103Z,98586.58
2023-01-11T13:27:53.511Z,98584.29
2023-01-11T13:30:24.272Z,98575.75
2023-01-11T13:32:55.924Z,98567.86
2023-01-11T13:35:39.379Z,98561.92
2023-01-11T13:38:23.081Z,98560.35
2023-01-11T13:40:53.549Z,98561.64
2023-01-11T13:43:44.942Z,98560.71
2023-01-11T13:46:15.059Z,98561.23
2023-01-11T13:48:42.932Z,98560.90
2023-01-11T13:51:35.645Z,98565.19
2023-01-11T13:54:11.623Z,98565.75
2023-01-11T13:56:42.589Z,98564.55
2023-01-11T13:59:14.412Z,98567.30
2023-01-11T14:01:53.864Z,98570.01
2023-01-11T14:04:27.912Z,98574.88
2023-01-11T14:07:25.133Z,98578.42
2023-01-11T14:09:53.359Z,98584.39
2023-01-11T14:12:36.727Z,98586.41
2023-01-11T14:15:22.361Z,98581.17
2023-01-11T14:18:11.329Z,98578.50
2023-01-11T14:20:44.856Z,98573.48
2023-01-11T14:23:13.593Z,98568.47
2023-01-11T14:26:01.379Z,98563.92
2023-01-11T14:28:44.529Z,98570.90
2023-01-11T14:31:21.706Z,98570.15
2023-01-11T14:34:04.003Z,98569.00
2023-01-11T14:36:53.628Z,98561.10
2023-01-11T14:39:41.912Z,98555.36
2023-01-11T14:42:16.250Z,98555.59
2023-01-11T14:44:59.257Z,98557.05
2023-01-11T14:47:56.762Z,98559.29
2023-01-11T14:50:23.468Z,98553.36
2023-01-11T14:52:53.255Z,98550.10
2023-01-11T14:55:24.283Z,98547.58
2023-01-11T14:58:09.715Z,98542.79
2023-01-11T15:00:36.471Z,98542.08
2023-01-11T15:03:07.108Z,98543.57
2023-01-11T15:05:38.115Z,98537.58
2023-01-11T15:08:09.945Z,98533.84
2023-01-11T15:10:36.690Z,98534.69
2023-01-11T15:13:13.287Z,98532.33
2023-01-11T15:15:55.515Z,98531.27
2023-01-11T15:18:24.585Z,98530.83
2023-01-11T15:20:58.271Z,98523.55
2023-01-11T15:23:26.248Z,98523.63
2023-01-11T15:26:09.600Z,98522.82
2023-01-11T15:28:50.311Z,98522.33
2023-01-11T15:31:36.697Z,98520.55
2023-01-11T15:34:20.801Z,98521.61
2023-01-11T15:36:55.233Z,98522.48
2023-01-11T15:39:53.469Z,98514.77
2023-01-11T15:42:23.525Z,98510.17
2023-01-11T15:45:06.489Z,98507.32
2023-01-11T15:48:09.023Z,98507.09
2023-01-11T15:50:44.208Z,98505.81
2023-01-11T15:53:41.264Z,98505.88
2023-01-11T15:56:25.421Z,98502.44
2023-01-11T15:58:52.208Z,98501.85
2023-01-11T16:01:28.672Z,98495.92
2023-01-11T16:04:09.573Z,98503.34
2023-01-11T16:06:58.562Z,98499.05
2023-01-11T16:09:41.878Z,98500.16
2023-01-11T16:12:12.030Z,98500.72
2023-01-11T16:14:57.399Z,98498.06
2023-01-11T16:17:25.346Z,98496.59
2023-01-11T16:19:56.701Z,98489.51
2023-01-11T16:22:26.494Z,98495.44
2023-01-11T16:24:57.120Z,98496.86
2023-01-11T16:27:26.937Z,98495.66
2023-01-11T16:29:55.139Z,98492.33
2023-01-11T16:32:27.180Z,98492.23
2023-01-11T16:34:55.321Z,98487.61
2023-01-11T16:37:24.978Z,98483.90
2023-01-11T16:39:54.707Z,98481.46
2023-01-11T16:42:22.833Z,98484.40
2023-01-11T16:44:58.318Z,98485.67
2023-01-11T16:47:25.275Z,98488.23
2023-01-11T16:50:14.784Z,98487.36
2023-01-11T16:52:48.437Z,98483.80
2023-01-11T16:55:19.781Z,98486.52
2023-01-11T16:57:52.622Z,98484.25
2023-01-11T17:00:24.741Z,98483.92
2023-01-11T17:03:01.952Z,98479.02
2023-01-11T17:05:28.785Z,98477.70
2023-01-11T17:07:55.543Z,98473.77
2023-01-11T17:10:24.860Z,98472.27
2023-01-11T17:13:37.456Z,98471.98
2023-01-11T17:16:10.032Z,98475.42
2023-01-11T17:18:40.091Z,98483.02
2023-01-11T17:21:17.946Z,98484.10
2023-01-11T17:23:46.066Z,98490.19
2023-01-11T17:26:23.539Z,98495.04
2023-01-11T17:28:55.933Z,98498.23
2023-01-11T17:31:26.796Z,98504.34
2023-01-11T17:34:03.844Z,98508.33
2023-01-11T17:36:31.925Z,98505.36
2023-01-11T17:38:59.283Z,98499.94
2023-01-11T17:41:44.016Z,98496.30
2023-01-11T17:44:36.731Z,98489.67
2023-01-11T17:47:07.494Z,98498.14
2023-01-11T17:49:35.593Z,98490.69
2023-01-11T17:52:16.481Z,98485.61
2023-01-11T17:54:43.415Z,98474.75
2023-01-11T17:57:10.983Z,98471.98
2023-01-11T17:59:37.751Z,98472.77
2023-01-11T18:02:12.589Z,98473.07
2023-01-11T18:04:40.187Z,98468.98
2023-01-11T18:07:15.667Z,98478.55
2023-01-11T18:09:48.800Z,98474.56
2023-01-11T18:12:21.578Z,98475.73
2023-01-11T18:14:54.090Z,98471.13
2023-01-11T18:17:32.646Z,98472.67
2023-01-11T18:20:00.989Z,98471.11
2023-01-11T18:22:37.508Z,98467.36
2023-01-11T18:25:20.246Z,98471.70
2023-01-11T18:27:47.738Z,98471.23
2023-01-11T18:30:29.788Z,98475.69
2023-01-11T18:32:58.526Z,98476.23
2023-01-11T18:35:25.413Z,98479.38
2023-01-11T18:37:52.294Z,98483.38
2023-01-11T18:40:19.761Z,98485.95
2023-01-11T18:42:49.628Z,98483.98
2023-01-11T18:45:17.258Z,98484.48
2023-01-11T18:47:43.959Z,98480.24
2023-01-11T18:50:12.694Z,98477.11
2023-01-11T18:52:39.709Z,98476.10
2023-01-11T18:55:10.032Z,98479.19
2023-01-11T18:57:36.771Z,98480.05
2023-01-11T19:00:04.271Z,98482.20
2023-01-11T19:02:47.097Z,98487.33
2023-01-11T19:05:18.651Z,98486.56
2023-01-11T19:07:45.999Z,98483.30
2023-01-11T19:10:16.240Z,98482.84
2023-01-11T19:12:44.426Z,98490.30
2023-01-11T19:15:12.414Z,98495.17
2023-01-11T19:17:39.801Z,98492.98
2023-01-11T19:20:09.213Z,98491.27
2023-01-11T19:22:37.319Z,98486.98
2023-01-11T19:25:05.159Z,98487.30
2023-01-11T19:27:31.897Z,98486.38
2023-01-11T19:29:59.192Z,98494.03
2023-01-11T19:32:25.902Z,98494.98
2023-01-11T19:34:53.875Z,98495.65
2023-01-11T19:37:21.126Z,98494.96
2023-01-11T19:39:47.963Z,98506.45
2023-01-11T19:42:14.675Z,98515.83
2023-01-11T19:44:42.604Z,98517.21
2023-01-11T19:47:13.273Z,98520.70
2023-01-11T19:49:41.886Z,98519.49
2023-01-11T19:52:14.400Z,98509.67
2023-01-11T19:54:42.859Z,98506.26
2023-01-11T19:57:11.360Z,98501.36
2023-01-11T19:59:38.336Z,98495.35
2023-01-11T20:02:05.471Z,98502.14
2023-01-11T20:04:33.038Z,98505.85
2023-01-11T20:07:00.597Z,98508.55
2023-01-11T20:09:27.634Z,98504.04
2023-01-11T20:11:55.570Z,98503.67
2023-01-11T20:14:22.441Z,98503.93
2023-01-11T20:16:49.426Z,98499.02
2023-01-11T20:19:16.408Z,98502.88
2023-01-11T20:21:43.644Z,98504.23
2023-01-11T20:24:12.941Z,98502.23
2023-01-11T20:26:41.098Z,98501.17
2023-01-11T20:29:08.327Z,98497.04
2023-01-11T20:31:35.898Z,98497.53
2023-01-11T20:34:08.277Z,98499.30
2023-01-11T20:36:35.069Z,98501.36
2023-01-11T20:39:02.055Z,98502.88
2023-01-11T20:41:44.590Z,98507.00
2023-01-11T20:44:12.363Z,98512.14
2023-01-11T20:46:39.576Z,98516.29
2023-01-11T20:49:08.038Z,98517.73
2023-01-11T20:51:36.084Z,98521.18
2023-01-11T20:54:04.491Z,98523.29
2023-01-11T20:56:47.211Z,98523.66
2023-01-11T20:59:17.408Z,98521.42
2023-01-11T21:01:44.432Z,98526.46
2023-01-11T21:04:12.174Z,98525.90
2023-01-11T21:06:41.823Z,98528.94
2023-01-11T21:09:10.019Z,98530.45
2023-01-11T21:14:04.612Z,98536.86
2023-01-11T21:16:31.953Z,98540.89
2023-01-11T21:19:02.601Z,98538.84
2023-01-11T21:21:32.241Z,98535.58
2023-01-11T21:24:02.340Z,98531.80
2023-01-11T21:26:30.420Z,98529.65
2023-01-11T21:28:59.676Z,98531.31
2023-01-11T21:31:29.498Z,98532.30
2023-01-11T21:33:57.506Z,98529.20
2023-01-11T21:36:26.038Z,98528.13
2023-01-11T21:38:54.195Z,98523.13
2023-01-11T21:41:40.903Z,98517.55
2023-01-11T21:44:08.617Z,98513.31
2023-01-11T21:46:35.754Z,98513.05
2023-01-11T21:49:02.680Z,98519.59
2023-01-11T21:51:31.076Z,98526.58
2023-01-11T21:53:59.287Z,98531.02
2023-01-11T21:56:26.401Z,98534.38
2023-01-11T21:58:53.209Z,98532.75
2023-01-11T22:01:21.856Z,98544.70
2023-01-11T22:03:49.025Z,98542.36
2023-01-11T22:06:16.550Z,98540.38
2023-01-11T22:08:45.161Z,98533.26
2023-01-11T22:11:14.153Z,98533.66
2023-01-11T22:13:41.427Z,98530.58
2023-01-11T22:16:11.978Z,98524.04
2023-01-11T22:18:40.629Z,98527.35
2023-01-11T22:21:08.612Z,98530.82
2023-01-11T22:23:35.817Z,98534.57
2023-01-11T22:26:04.487Z,98534.14
2023-01-11T22:28:31.231Z,98542.38
2023-01-11T22:31:07.699Z,98541.30
2023-01-11T22:33:36.561Z,98541.23
2023-01-11T22:36:18.717Z,98543.19
2023-01-11T22:38:46.857Z,98539.78
2023-01-11T22:41:14.900Z,98549.24
2023-01-11T22:43:43.153Z,98553.81
2023-01-11T22:46:15.348Z,98557.41
2023-01-11T22:48:42.425Z,98560.64
2023-01-11T22:51:10.335Z,98562.54
2023-01-11T22:53:38.831Z,98564.83
2023-01-11T22:56:06.670Z,98567.88
2023-01-11T22:58:33.457Z,98570.04
2023-01-11T23:01:10.817Z,98569.70
2023-01-11T23:03:38.753Z,98572.94
2023-01-11T23:06:06.640Z,98575.75
2023-01-11T23:08:37.725Z,98576.74
2023-01-11T23:11:04.957Z,98580.63
2023-01-11T23:13:47.475Z,98577.38
2023-01-11T23:16:15.057Z,98573.85
2023-01-11T23:18:41.878Z,98578.90
2023-01-11T23:21:08.715Z,98581.15
2023-01-11T23:23:35.538Z,98580.11
2023-01-11T23:26:02.295Z,98582.98
2023-01-11T23:28:30.772Z,98588.27
2023-01-11T23:30:57.481Z,98588.77
2023-01-11T23:33:24.320Z,98590.08
2023-01-11T23:35:59.255Z,98591.58
2023-01-11T23:38:26.130Z,98590.05
2023-01-11T23:41:08.362Z,98585.95
2023-01-11T23:43:38.649Z,98591.95
2023-01-11T23:46:21.110Z,98594.77
2023-01-11T23:48:47.833Z,98601.19
2023-01-11T23:51:14.756Z,98595.91
2023-01-11T23:53:41.631Z,98595.67
2023-01-11T23:56:08.399Z,98598.59
2023-01-11T23:58:35.644Z,98603.27
